ADDS METAR Data INFO
IDs: Format: Raw Decoded Include TAF

Data at: 0109 UTC 21 Oct 2017

KITR 210053Z AUTO 16010KT 10SM CLR 16/04 A2955 RMK AO2 SLP972 T01610039
KITR 202353Z AUTO 17008KT 10SM CLR 21/03 A2956 RMK AO2 SLP970 T02060033 10272 20206 58004
KITR 202253Z AUTO 19018G27KT 10SM CLR 26/03 A2956 RMK AO2 PK WND 20030/2216 SLP966 T02560028
KITR 202153Z AUTO 19015G28KT 10SM CLR 26/03 A2957 RMK AO2 PK WND 19028/2148 SLP967 T02610033
KITR 202053Z AUTO 18014G22KT 10SM CLR 26/04 A2957 RMK AO2 PK WND 18027/2039 SLP967 T02610044 58031
KITR 201953Z AUTO 19015G26KT 10SM CLR 25/04 A2961 RMK AO2 PK WND 19026/1949 SLP982 T02500044
KITR 201853Z AUTO 19014KT 10SM CLR 23/04 A2964 RMK AO2 SLP993 T02330039
KITR 201753Z AUTO 20011KT 10SM CLR 21/05 A2968 RMK AO2 SLP006 T02110050 10211 20100 58016
KITR 201653Z AUTO 20015KT 10SM CLR 20/06 A2970 RMK AO2 SLP015 T02000056
KITR 201553Z AUTO 19010KT 10SM CLR 16/10 A2972 RMK AO2 SLP030 T01560100
KITR 201453Z AUTO 19010KT 10SM CLR 13/11 A2973 RMK AO2 SLP034 T01280111 56014
KITR 201353Z AUTO 18012KT 10SM CLR 12/11 A2974 RMK AO2 SLP036 T01170106
KITR 201253Z AUTO 17010KT 10SM CLR 10/09 A2975 RMK AO2 SLP048 T01000094
KITR 201153Z AUTO 18010KT 10SM CLR 11/09 A2978 RMK AO2 SLP047 T01060094 10128 20100 56014
KITR 201053Z AUTO 18011KT 10SM CLR 10/09 A2979 RMK AO2 SLP045 T01000089
KITR 200953Z AUTO 17012KT 10SM CLR 10/08 A2980 RMK AO2 SLP047 T01000083
KITR 200853Z AUTO 18012KT 10SM CLR 11/08 A2983 RMK AO2 SLP054 T01060078 58018
KITR 200753Z AUTO 18013KT 10SM CLR 12/08 A2985 RMK AO2 SLP062 T01170083
KITR 200653Z AUTO 17014KT 10SM CLR 12/08 A2987 RMK AO2 SLP069 T01170078 402720017
KITR 200553Z AUTO 17016G24KT 10SM CLR 13/08 A2989 RMK AO2 SLP073 T01280078 10200 20122 58015
KITR 200453Z AUTO 16013KT 10SM CLR 13/08 A2991 RMK AO2 SLP084 T01280078
KITR 200353Z AUTO 16013KT 10SM CLR 13/07 A2993 RMK AO2 SLP094 T01330072
KITR 200253Z AUTO 17013KT 10SM CLR 16/08 A2993 RMK AO2 SLP099 T01560078 56004
KITR 200153Z AUTO 15012KT 10SM CLR 16/08 A2993 RMK AO2 SLP113 T01610078
KITR 200053Z AUTO 16008KT 10SM CLR 14/07 A2994 RMK AO2 SLP125 T01390067
KITR 192353Z AUTO 17014KT 10SM CLR 20/07 A2995 RMK AO2 PK WND 17026/2326 SLP114 T02000072 10272 20200 55005
KITR 192253Z AUTO 16019G26KT 10SM CLR 24/07 A2995 RMK AO2 PK WND 16027/2211 SLP109 T02440067
KITR 192153Z AUTO 16017G23KT 10SM CLR 26/04 A2996 RMK AO2 PK WND 14026/2141 SLP113 T02560044
KITR 192053Z AUTO 17016G23KT 10SM CLR 27/04 A2997 RMK AO2 PK WND 16027/2022 SLP110 T02670044 56028
KITR 191953Z AUTO 17014G25KT 10SM CLR 26/07 A2999 RMK AO2 PK WND 16026/1858 SLP120 T02610067
KITR 191853Z AUTO 17018G25KT 10SM CLR 26/07 A3002 RMK AO2 PK WND 16027/1829 SLP129 T02610067
KITR 191753Z AUTO 18016G24KT 10SM CLR 26/07 A3006 RMK AO2 SLP141 T02560067 10256 20017 58010
KITR 191653Z AUTO 17015KT 10SM CLR 24/08 A3007 RMK AO2 SLP147 T02440078
KITR 191553Z AUTO 18011KT 10SM CLR 21/06 A3009 RMK AO2 SLP154 T02110061
KITR 191453Z AUTO 17007KT 10SM CLR 17/06 A3009 RMK AO2 SLP160 T01670056 53001
KITR 191353Z AUTO 20003KT 10SM CLR 07/03 A3008 RMK AO2 SLP167 T00670028 $